Time;durP1;ratioP1;P1;durP2;ratioP2;P2;SDS_P1;SDS_P2;PMS_P1;PMS_P2;Temp;Humidity;BMP_temperature;BMP_pressure;BME280_temperature;BME280_humidity;BME280_pressure;Samples;Min_cycle;Max_cycle;Signal;HPM_P1;HPM_P2
2024/01/18 00:02:23;;;;;;;5.32;1.60;;;0.30;99.90;;;;;;5024041;28;20095;-85
2024/01/18 00:04:48;;;;;;;4.10;1.60;;;0.80;99.90;;;;;;5011391;28;20554;-85
2024/01/18 00:07:14;;;;;;;2.30;1.60;;;-0.30;99.90;;;;;;5027320;28;20034;-85
2024/01/18 00:09:40;;;;;;;6.82;1.98;;;-0.40;99.90;;;;;;5011618;28;20040;-85
2024/01/18 00:12:06;;;;;;;3.38;1.50;;;-0.40;99.90;;;;;;5020465;28;20037;-85
2024/01/18 00:14:31;;;;;;;3.08;1.50;;;-0.50;99.90;;;;;;5005877;28;20037;-85
2024/01/18 00:16:57;;;;;;;3.75;1.40;;;-0.50;99.90;;;;;;5027195;28;20108;-85
2024/01/18 00:19:23;;;;;;;3.80;1.50;;;-0.60;99.90;;;;;;5011114;28;20460;-85
2024/01/18 00:21:49;;;;;;;4.35;1.50;;;-0.50;99.90;;;;;;4994808;28;20045;-85
2024/01/18 00:24:15;;;;;;;3.58;1.48;;;1.30;99.90;;;;;;5017151;28;20072;-85
2024/01/18 00:26:40;;;;;;;5.13;1.80;;;-0.20;99.90;;;;;;5011319;28;20071;-85
2024/01/18 00:29:06;;;;;;;2.75;1.30;;;-0.70;99.90;;;;;;5011431;28;20072;-85
2024/01/18 00:31:32;;;;;;;3.97;1.52;;;0.60;99.90;;;;;;4939367;28;20043;-85
2024/01/18 00:33:58;;;;;;;3.35;1.50;;;-0.70;99.90;;;;;;4969498;28;20043;-85
2024/01/18 00:36:27;;;;;;;3.00;1.40;;;0.90;99.90;;;;;;4999615;28;20143;-85
2024/01/18 00:38:53;;;;;;;3.03;1.50;;;-0.70;99.90;;;;;;4965594;28;20044;-85
2024/01/18 00:41:20;;;;;;;3.10;1.50;;;0.10;99.90;;;;;;4965141;28;20053;-86
2024/01/18 00:43:49;;;;;;;4.38;1.50;;;-0.80;99.90;;;;;;4952853;28;20038;-85
2024/01/18 00:46:18;;;;;;;3.10;1.50;;;0.60;99.90;;;;;;4968868;28;20093;-85
2024/01/18 00:48:44;;;;;;;5.22;2.10;;;-0.80;99.90;;;;;;4952934;28;20468;-86
2024/01/18 00:51:10;;;;;;;4.63;1.60;;;0.70;99.90;;;;;;4952086;28;20122;-86
2024/01/18 00:53:35;;;;;;;4.85;2.00;;;0.40;99.90;;;;;;4968621;28;20105;-86
2024/01/18 00:56:02;;;;;;;3.97;1.50;;;-0.90;99.90;;;;;;4968609;28;20049;-86
2024/01/18 00:58:28;;;;;;;6.32;2.15;;;-0.90;99.90;;;;;;4952373;28;20043;-85
2024/01/18 01:00:53;;;;;;;7.55;2.00;;;0.90;99.90;;;;;;4986346;28;20098;-86
2024/01/18 01:03:19;;;;;;;7.43;3.15;;;-0.20;99.90;;;;;;4956937;28;20060;-86
2024/01/18 01:05:45;;;;;;;8.75;3.15;;;0.40;99.90;;;;;;4956720;28;20034;-86
2024/01/18 01:08:10;;;;;;;7.80;3.30;;;0.40;99.90;;;;;;4956057;28;20035;-85
2024/01/18 01:10:36;;;;;;;7.53;3.05;;;0.20;99.90;;;;;;4972027;28;20046;-85
2024/01/18 01:13:02;;;;;;;8.52;3.20;;;0.00;99.90;;;;;;4956490;28;20060;-86
2024/01/18 01:15:28;;;;;;;9.30;3.30;;;-1.00;99.90;;;;;;4956284;28;20560;-86
2024/01/18 01:17:53;;;;;;;8.93;3.42;;;-1.00;99.90;;;;;;4956691;28;20047;-86
2024/01/18 01:20:19;;;;;;;8.90;3.55;;;-1.10;99.90;;;;;;4955250;28;20050;-86
2024/01/18 01:22:45;;;;;;;10.63;4.18;;;-1.20;99.90;;;;;;4954162;28;20047;-86
2024/01/18 01:25:11;;;;;;;9.00;3.80;;;-1.20;99.90;;;;;;4956573;28;20077;-86
2024/01/18 01:27:36;;;;;;;9.98;4.07;;;-1.20;99.90;;;;;;4955943;28;20042;-86
2024/01/18 01:30:02;;;;;;;10.50;4.03;;;0.10;99.90;;;;;;4955323;28;20050;-86
2024/01/18 01:32:28;;;;;;;11.63;4.53;;;-1.30;99.90;;;;;;5016339;28;20126;-86
2024/01/18 01:34:54;;;;;;;10.43;4.40;;;-1.30;99.90;;;;;;4954008;28;20053;-86
2024/01/18 01:37:19;;;;;;;9.35;3.88;;;-1.30;99.90;;;;;;4955550;28;20053;-86
2024/01/18 01:39:46;;;;;;;9.93;4.10;;;-1.30;99.90;;;;;;4955688;28;20043;-86
2024/01/18 01:42:11;;;;;;;8.55;4.05;;;0.80;99.90;;;;;;4971932;28;20035;-86
2024/01/18 01:44:37;;;;;;;10.50;4.20;;;-1.20;99.90;;;;;;4956515;28;20515;-86
2024/01/18 01:47:03;;;;;;;11.57;3.80;;;-1.20;99.90;;;;;;4955432;28;20035;-85
2024/01/18 01:49:29;;;;;;;11.32;3.88;;;-1.20;99.90;;;;;;4939598;28;21523;-86
2024/01/18 01:51:55;;;;;;;11.10;3.70;;;-0.80;99.90;;;;;;4954912;28;20043;-86
2024/01/18 01:54:21;;;;;;;9.45;3.90;;;-0.40;99.90;;;;;;4956013;28;20046;-86
2024/01/18 01:56:53;;;;;;;10.93;3.95;;;-1.10;99.90;;;;;;4971951;28;20412;-86
2024/01/18 01:59:19;;;;;;;7.25;2.97;;;-1.10;99.90;;;;;;4971715;28;20039;-86
2024/01/18 02:01:45;;;;;;;9.13;2.78;;;-1.00;99.90;;;;;;4970495;28;20113;-86
2024/01/18 02:04:12;;;;;;;6.93;2.35;;;-1.00;99.90;;;;;;4967582;28;20046;-86
2024/01/18 02:06:40;;;;;;;9.60;2.60;;;0.10;99.90;;;;;;4995320;28;20155;-86
2024/01/18 02:09:06;;;;;;;10.00;2.58;;;-0.80;99.90;;;;;;4955701;28;20105;-86
2024/01/18 02:11:32;;;;;;;7.82;2.20;;;-0.70;99.90;;;;;;4969887;28;20039;-86
2024/01/18 02:13:58;;;;;;;6.43;2.20;;;0.40;99.90;;;;;;4978232;28;20061;-86
2024/01/18 02:16:24;;;;;;;6.57;2.20;;;-0.50;99.90;;;;;;4955140;28;20039;-86
2024/01/18 02:18:51;;;;;;;6.72;1.80;;;;;;;;;;4955329;28;20043;-85
2024/01/18 02:21:17;;;;;;;8.45;2.10;;;-0.60;99.90;;;;;;4955155;28;20130;-86
2024/01/18 02:24:01;;;;;;;7.72;2.40;;;1.20;99.90;;;;;;4970136;28;20078;-86
2024/01/18 02:26:27;;;;;;;7.40;2.08;;;-0.60;99.90;;;;;;4971732;28;20058;-86
2024/01/18 02:28:57;;;;;;;12.18;2.22;;;-0.70;99.90;;;;;;4955631;28;20456;-86
2024/01/18 02:31:23;;;;;;;4.43;2.00;;;-0.70;99.90;;;;;;4971495;28;20058;-86
2024/01/18 02:33:50;;;;;;;5.65;1.90;;;-0.80;99.90;;;;;;4967253;28;20882;-86
2024/01/18 02:36:18;;;;;;;7.63;1.90;;;-0.70;99.90;;;;;;5003161;28;20043;-86
2024/01/18 02:38:44;;;;;;;4.65;1.77;;;0.50;99.90;;;;;;5018890;28;20130;-86
2024/01/18 02:41:11;;;;;;;4.63;1.73;;;-0.80;99.90;;;;;;4971586;28;20045;-86
2024/01/18 02:43:37;;;;;;;6.43;1.90;;;-0.80;99.90;;;;;;4970300;28;20059;-86
2024/01/18 02:46:03;;;;;;;4.22;1.80;;;1.00;99.90;;;;;;4970698;28;20135;-86
2024/01/18 02:48:29;;;;;;;9.90;2.00;;;-0.90;99.90;;;;;;4953902;28;20121;-86
2024/01/18 02:50:54;;;;;;;5.28;1.88;;;0.30;99.90;;;;;;4953383;28;20489;-86
2024/01/18 02:53:20;;;;;;;6.75;2.22;;;-1.00;99.90;;;;;;4953581;28;20046;-86
2024/01/18 02:55:47;;;;;;;6.25;2.10;;;0.40;99.90;;;;;;4955154;28;20043;-86
2024/01/18 02:58:13;;;;;;;6.40;2.00;;;-0.80;99.90;;;;;;4954920;28;20491;-86
2024/01/18 03:00:38;;;;;;;6.70;2.05;;;-0.60;99.90;;;;;;4954898;28;20118;-86
2024/01/18 03:03:04;;;;;;;5.70;1.95;;;-1.00;99.90;;;;;;4953548;28;20499;-86
2024/01/18 03:05:31;;;;;;;5.82;1.92;;;-1.00;99.90;;;;;;4998413;28;20038;-86
2024/01/18 03:07:57;;;;;;;5.45;2.25;;;0.70;99.90;;;;;;4970541;28;20544;-86
2024/01/18 03:10:23;;;;;;;5.63;2.08;;;0.00;99.90;;;;;;4937611;28;20118;-86
2024/01/18 03:12:48;;;;;;;7.05;1.98;;;-1.00;99.90;;;;;;4953321;28;20034;-86
2024/01/18 03:15:14;;;;;;;7.65;2.00;;;-1.10;99.90;;;;;;5001885;28;20038;-86
2024/01/18 03:17:40;;;;;;;7.60;2.33;;;0.20;99.90;;;;;;4954143;28;20043;-86
2024/01/18 03:20:07;;;;;;;5.25;1.88;;;-1.20;99.90;;;;;;4970119;28;20055;-86
2024/01/18 03:22:34;;;;;;;4.95;1.88;;;-1.20;99.90;;;;;;4953329;28;20042;-85
2024/01/18 03:25:01;;;;;;;6.65;1.92;;;-1.20;99.90;;;;;;4953856;28;20037;-86
2024/01/18 03:27:27;;;;;;;6.45;2.03;;;-1.20;99.90;;;;;;4953413;28;20512;-86
2024/01/18 03:29:52;;;;;;;4.97;1.92;;;-1.20;99.90;;;;;;4954301;28;20038;-86
2024/01/18 03:32:18;;;;;;;5.03;1.85;;;-0.10;99.90;;;;;;4953231;28;20267;-85
2024/01/18 03:34:44;;;;;;;4.75;1.90;;;-1.40;99.90;;;;;;4970382;28;20043;-85
2024/01/18 03:37:09;;;;;;;8.93;1.95;;;-1.30;99.90;;;;;;4953493;28;20078;-86
2024/01/18 03:39:38;;;;;;;4.70;1.80;;;-1.40;99.90;;;;;;4953883;28;20585;-86
2024/01/18 03:42:04;;;;;;;3.53;1.73;;;0.20;99.90;;;;;;4969286;28;20038;-86
2024/01/18 03:44:30;;;;;;;5.90;1.60;;;-0.20;99.90;;;;;;4970075;28;20042;-85
2024/01/18 03:46:56;;;;;;;5.22;1.90;;;-0.40;99.90;;;;;;4953447;28;20039;-86
2024/01/18 03:49:22;;;;;;;7.18;1.80;;;-1.30;99.90;;;;;;4953940;28;20047;-85
2024/01/18 03:51:47;;;;;;;8.27;1.90;;;0.10;99.90;;;;;;4952454;28;20408;-85
2024/01/18 03:54:13;;;;;;;6.95;1.77;;;0.30;99.90;;;;;;5002840;28;20153;-85
2024/01/18 03:56:39;;;;;;;5.65;1.88;;;1.10;99.90;;;;;;4938830;28;20492;-85
2024/01/18 03:59:04;;;;;;;9.18;2.05;;;-1.00;99.90;;;;;;4921977;28;20206;-85
2024/01/18 04:01:33;;;;;;;7.38;1.90;;;0.70;99.90;;;;;;4953509;28;20297;-85
2024/01/18 04:04:02;;;;;;;3.33;1.65;;;-1.00;99.90;;;;;;4969248;28;20039;-85
2024/01/18 04:06:28;;;;;;;4.28;1.60;;;-0.90;99.90;;;;;;4936741;28;20405;-85
2024/01/18 04:08:54;;;;;;;4.15;1.75;;;;;;;;;;4953777;28;20050;-85
2024/01/18 04:11:20;;;;;;;6.07;2.28;;;-1.00;99.90;;;;;;4953587;28;20055;-85
2024/01/18 04:13:47;;;;;;;4.30;1.70;;;-1.00;99.90;;;;;;4968386;28;20412;-85
2024/01/18 04:16:13;;;;;;;7.18;1.80;;;0.90;99.90;;;;;;4969558;28;20390;-85
2024/01/18 04:18:38;;;;;;;4.22;1.80;;;-1.00;99.90;;;;;;4969634;28;20074;-85
2024/01/18 04:21:04;;;;;;;5.90;1.70;;;0.20;99.90;;;;;;4953168;28;20058;-85
2024/01/18 04:23:30;;;;;;;5.60;1.83;;;0.20;99.90;;;;;;4952487;28;20385;-85
2024/01/18 04:25:56;;;;;;;8.40;1.83;;;-0.90;99.90;;;;;;4953552;28;20061;-85
2024/01/18 04:28:22;;;;;;;3.63;1.60;;;0.00;99.90;;;;;;4953550;28;20141;-85
2024/01/18 04:30:48;;;;;;;3.05;1.50;;;-0.80;99.90;;;;;;4969791;28;20527;-85
2024/01/18 04:33:14;;;;;;;3.58;1.85;;;0.30;99.90;;;;;;4952948;28;20081;-84
2024/01/18 04:35:40;;;;;;;3.53;1.50;;;-0.10;99.90;;;;;;4971323;28;20125;-85
2024/01/18 04:38:08;;;;;;;4.75;1.60;;;1.00;99.90;;;;;;4972862;28;20043;-85
2024/01/18 04:40:34;;;;;;;5.07;1.60;;;-0.20;99.90;;;;;;4973781;28;20419;-85
2024/01/18 04:43:00;;;;;;;7.38;2.00;;;-0.90;99.90;;;;;;4941187;28;20046;-85
2024/01/18 04:45:25;;;;;;;5.95;1.67;;;-0.10;99.90;;;;;;4956071;28;20046;-85
2024/01/18 04:47:52;;;;;;;5.68;1.73;;;-0.90;99.90;;;;;;4972906;28;20042;-86
2024/01/18 04:50:24;;;;;;;4.28;1.70;;;-1.00;99.90;;;;;;4957149;28;20121;-85
2024/01/18 04:52:50;;;;;;;5.65;1.70;;;0.20;99.90;;;;;;4972993;28;20046;-85
2024/01/18 04:55:16;;;;;;;4.88;1.60;;;-0.10;99.90;;;;;;4955890;28;20038;-85
2024/01/18 04:57:42;;;;;;;3.75;1.50;;;-0.90;99.90;;;;;;4973078;28;20041;-85
2024/01/18 05:00:10;;;;;;;4.80;1.58;;;-1.20;99.90;;;;;;4956675;28;20113;-85
2024/01/18 05:02:40;;;;;;;4.13;1.98;;;-1.20;99.90;;;;;;4957175;28;20046;-85
2024/01/18 05:05:08;;;;;;;5.15;1.50;;;-0.30;99.90;;;;;;4972785;28;20500;-85
2024/01/18 05:07:34;;;;;;;3.85;1.50;;;-1.40;99.90;;;;;;4955473;28;20030;-85
2024/01/18 05:10:01;;;;;;;3.70;1.40;;;-1.30;99.90;;;;;;4956017;28;20105;-85
2024/01/18 05:12:27;;;;;;;2.92;1.30;;;-1.40;99.90;;;;;;4956492;28;20046;-85
2024/01/18 05:14:53;;;;;;;3.28;1.50;;;-0.70;99.90;;;;;;4957257;28;20085;-85
2024/01/18 05:17:21;;;;;;;3.50;1.60;;;0.00;99.90;;;;;;4955785;28;20046;-84
2024/01/18 05:19:46;;;;;;;4.30;1.60;;;-0.50;99.90;;;;;;4972543;28;20121;-84
2024/01/18 05:22:12;;;;;;;4.75;1.65;;;0.20;99.90;;;;;;4955744;28;20135;-85
2024/01/18 05:24:39;;;;;;;4.82;1.60;;;-1.20;99.90;;;;;;4972845;28;20035;-85
2024/01/18 05:27:06;;;;;;;5.72;1.60;;;-1.20;99.90;;;;;;4955801;28;20468;-85
2024/01/18 05:29:32;;;;;;;2.45;1.55;;;-1.20;99.90;;;;;;4998763;28;20459;-85
2024/01/18 05:31:57;;;;;;;2.88;1.50;;;-1.00;99.90;;;;;;4946224;28;20077;-85
2024/01/18 05:34:23;;;;;;;5.72;1.60;;;0.90;99.90;;;;;;5003259;28;20046;-85
2024/01/18 05:36:49;;;;;;;3.97;1.50;;;0.70;99.90;;;;;;4955561;28;20619;-85
2024/01/18 05:39:14;;;;;;;7.75;1.55;;;1.10;99.90;;;;;;4971615;28;20050;-85
2024/01/18 05:41:40;;;;;;;5.05;1.90;;;1.30;99.90;;;;;;4955375;28;20503;-84
2024/01/18 05:44:06;;;;;;;6.20;1.50;;;-0.70;99.90;;;;;;4937810;28;20108;-85
2024/01/18 05:46:31;;;;;;;4.85;1.63;;;-0.70;99.90;;;;;;4969601;28;20437;-85
2024/01/18 05:48:57;;;;;;;4.18;1.70;;;1.40;99.90;;;;;;4939357;28;20587;-85
2024/01/18 05:51:23;;;;;;;7.20;1.98;;;-0.90;99.90;;;;;;4939453;28;20038;-85
2024/01/18 05:53:49;;;;;;;4.93;1.70;;;-0.70;99.90;;;;;;4937261;28;20042;-85
2024/01/18 05:56:14;;;;;;;4.43;1.60;;;-0.80;99.90;;;;;;4969993;28;20046;-85
2024/01/18 05:58:40;;;;;;;5.05;1.70;;;1.20;99.90;;;;;;4938745;28;20298;-85
2024/01/18 06:01:06;;;;;;;5.50;1.75;;;0.70;99.90;;;;;;4954535;28;20046;-85
2024/01/18 06:03:32;;;;;;;4.90;1.60;;;-0.70;99.90;;;;;;4972237;28;20038;-85
2024/01/18 06:05:58;;;;;;;5.65;1.80;;;0.40;99.90;;;;;;4956032;28;20070;-85
2024/01/18 06:08:26;;;;;;;4.00;1.50;;;0.40;99.90;;;;;;4955766;28;20043;-84
2024/01/18 06:10:52;;;;;;;6.93;1.75;;;-0.90;99.90;;;;;;4970511;28;20054;-85
2024/01/18 06:13:17;;;;;;;5.25;1.80;;;0.50;99.90;;;;;;4985174;28;20042;-85
2024/01/18 06:15:43;;;;;;;4.80;1.70;;;-0.80;99.90;;;;;;4945564;28;20109;-85
2024/01/18 06:18:09;;;;;;;4.10;1.70;;;-0.80;99.90;;;;;;4955551;28;20495;-85
2024/01/18 06:20:35;;;;;;;4.10;1.65;;;0.60;99.90;;;;;;4954297;28;20094;-85
2024/01/18 06:23:01;;;;;;;6.68;1.77;;;0.40;99.90;;;;;;5003271;28;20049;-85
2024/01/18 06:25:27;;;;;;;6.65;2.25;;;-0.70;99.90;;;;;;4953301;28;20129;-85
2024/01/18 06:27:53;;;;;;;6.53;1.83;;;-0.80;99.90;;;;;;4954563;28;20093;-85
2024/01/18 06:30:19;;;;;;;5.68;1.80;;;0.00;99.90;;;;;;4971569;28;20057;-85
2024/01/18 06:32:45;;;;;;;5.97;1.83;;;1.00;99.90;;;;;;4954086;28;20049;-85
2024/01/18 06:35:11;;;;;;;7.55;1.90;;;0.70;99.90;;;;;;4953711;28;20523;-86
2024/01/18 06:37:38;;;;;;;8.10;1.90;;;-0.80;99.90;;;;;;4969098;28;20129;-87
2024/01/18 06:40:04;;;;;;;7.72;2.45;;;0.40;99.90;;;;;;4970863;28;20039;-87
2024/01/18 06:42:31;;;;;;;5.60;1.85;;;-0.90;99.90;;;;;;4955084;28;20038;-87
2024/01/18 06:44:57;;;;;;;6.93;2.55;;;0.00;99.90;;;;;;4970507;28;20492;-86
2024/01/18 06:47:23;;;;;;;6.30;1.80;;;0.40;99.90;;;;;;4954169;28;20476;-86
2024/01/18 06:49:48;;;;;;;3.17;1.50;;;-1.00;99.90;;;;;;4953818;28;20043;-87
2024/01/18 06:52:14;;;;;;;7.50;1.77;;;0.20;99.90;;;;;;4938992;28;20105;-86
2024/01/18 06:54:43;;;;;;;3.67;1.70;;;-1.10;99.90;;;;;;4951015;28;20386;-87
2024/01/18 06:57:09;;;;;;;6.15;1.83;;;0.70;99.90;;;;;;4984307;28;20042;-86
2024/01/18 06:59:36;;;;;;;5.43;1.70;;;-0.50;99.90;;;;;;4969201;28;20077;-86
2024/01/18 07:02:02;;;;;;;4.70;1.83;;;-1.00;99.90;;;;;;4954451;28;20548;-86
2024/01/18 07:04:28;;;;;;;6.60;2.28;;;-1.10;99.90;;;;;;4970685;28;20089;-86
2024/01/18 07:06:54;;;;;;;5.07;1.65;;;0.00;99.90;;;;;;4969436;28;20039;-86
2024/01/18 07:09:19;;;;;;;5.93;1.95;;;0.10;99.90;;;;;;5019945;28;20050;-86
2024/01/18 07:11:46;;;;;;;5.80;2.00;;;-1.10;99.90;;;;;;4965825;28;20066;-86
2024/01/18 07:14:12;;;;;;;4.35;1.90;;;0.30;99.90;;;;;;4938324;28;20058;-86
2024/01/18 07:16:37;;;;;;;4.95;1.70;;;-0.90;99.90;;;;;;4954718;28;20057;-86
2024/01/18 07:19:04;;;;;;;3.80;1.52;;;-1.00;99.90;;;;;;4953856;28;20046;-87
2024/01/18 07:21:30;;;;;;;4.82;1.70;;;-0.80;99.90;;;;;;4953524;28;20086;-86
2024/01/18 07:23:56;;;;;;;7.55;1.70;;;-0.60;99.90;;;;;;4954334;28;20079;-86
2024/01/18 07:26:21;;;;;;;4.90;1.70;;;1.10;99.90;;;;;;4953693;28;20128;-86
2024/01/18 07:28:48;;;;;;;2.97;1.40;;;-0.60;99.90;;;;;;4969078;28;20090;-86
2024/01/18 07:31:14;;;;;;;3.03;1.40;;;-0.50;99.90;;;;;;4953548;28;20125;-86
2024/01/18 07:33:40;;;;;;;3.33;1.50;;;-0.50;99.90;;;;;;5002983;28;20051;-86
2024/01/18 07:36:06;;;;;;;4.50;1.60;;;-0.30;99.90;;;;;;5001716;28;20493;-86
2024/01/18 07:38:32;;;;;;;5.57;1.95;;;0.40;99.90;;;;;;4977203;28;20042;-86
2024/01/18 07:40:57;;;;;;;6.13;1.90;;;0.80;99.90;;;;;;4945186;28;20496;-86
2024/01/18 07:43:24;;;;;;;5.57;1.80;;;-0.30;99.90;;;;;;4954010;28;20074;-86
2024/01/18 07:45:50;;;;;;;5.00;1.80;;;-0.10;99.90;;;;;;4954400;28;20429;-86
2024/01/18 07:48:15;;;;;;;3.80;1.80;;;0.70;99.90;;;;;;4952261;28;20213;-86
2024/01/18 07:50:41;;;;;;;2.97;1.55;;;-0.60;99.90;;;;;;5019178;28;20042;-86
2024/01/18 07:53:07;;;;;;;4.32;2.22;;;-0.50;99.90;;;;;;4959281;28;20046;-87
2024/01/18 07:55:33;;;;;;;5.32;2.08;;;-0.60;99.90;;;;;;4949377;28;20522;-87
2024/01/18 07:57:59;;;;;;;8.32;3.67;;;-0.60;99.90;;;;;;4951216;28;20114;-86
2024/01/18 08:00:25;;;;;;;8.98;2.85;;;-0.50;99.90;;;;;;4970111;28;20049;-86
2024/01/18 08:02:51;;;;;;;5.97;1.95;;;-0.60;99.90;;;;;;4986188;28;20397;-86
2024/01/18 08:05:17;;;;;;;6.53;2.05;;;-0.70;99.90;;;;;;4953027;28;20047;-86
2024/01/18 08:07:42;;;;;;;4.20;1.75;;;-0.50;99.90;;;;;;4953880;28;20042;-86
2024/01/18 08:10:09;;;;;;;3.55;1.55;;;-0.60;99.90;;;;;;4953372;28;20092;-86
2024/01/18 08:12:35;;;;;;;5.35;1.77;;;-0.60;99.90;;;;;;4969542;28;20039;-86
2024/01/18 08:15:00;;;;;;;4.18;1.65;;;-0.50;99.90;;;;;;4968797;28;20190;-86
2024/01/18 08:17:27;;;;;;;6.97;1.80;;;-0.60;99.90;;;;;;4953530;28;20125;-86
2024/01/18 08:19:54;;;;;;;8.05;2.10;;;-0.50;99.90;;;;;;4953506;28;20050;-86
2024/01/18 08:22:20;;;;;;;5.72;2.08;;;-0.40;99.90;;;;;;4953707;28;20055;-86
2024/01/18 08:24:47;;;;;;;7.22;1.80;;;1.10;99.90;;;;;;4952920;28;20101;-86
2024/01/18 08:27:13;;;;;;;5.85;1.80;;;-0.40;99.90;;;;;;4994851;28;20045;-86
2024/01/18 08:29:39;;;;;;;4.72;1.70;;;-0.40;99.90;;;;;;4968210;28;20114;-86
2024/01/18 08:32:05;;;;;;;6.80;2.00;;;-0.40;99.90;;;;;;4952413;28;20038;-86
2024/01/18 08:34:31;;;;;;;4.65;1.70;;;-0.40;99.90;;;;;;4969509;28;20358;-86
2024/01/18 08:36:57;;;;;;;6.05;1.90;;;-0.30;99.90;;;;;;4949869;28;20448;-86
2024/01/18 08:39:23;;;;;;;7.05;1.90;;;0.00;99.90;;;;;;4985267;28;20035;-86
2024/01/18 08:41:48;;;;;;;6.43;2.10;;;0.50;99.90;;;;;;4953759;28;20078;-86
2024/01/18 08:44:14;;;;;;;7.20;2.30;;;-0.10;99.90;;;;;;4953511;28;20035;-86
2024/01/18 08:46:40;;;;;;;6.60;2.15;;;0.10;99.90;;;;;;4970195;28;20121;-86
2024/01/18 08:49:08;;;;;;;6.20;2.03;;;0.10;99.90;;;;;;4952846;28;20039;-86
2024/01/18 08:51:33;;;;;;;8.70;2.25;;;1.00;99.90;;;;;;4953798;28;20047;-86
2024/01/18 08:53:59;;;;;;;5.55;1.80;;;0.00;99.90;;;;;;4952475;28;20053;-86
2024/01/18 08:56:25;;;;;;;5.50;1.90;;;0.10;99.90;;;;;;4952678;28;20062;-86
2024/01/18 08:58:50;;;;;;;8.07;2.08;;;0.30;99.90;;;;;;4940200;28;20472;-86
2024/01/18 09:01:16;;;;;;;4.97;1.80;;;1.60;99.90;;;;;;4984347;28;20051;-86
2024/01/18 09:03:42;;;;;;;7.38;2.08;;;0.20;99.90;;;;;;4937699;28;20042;-86
2024/01/18 09:06:07;;;;;;;7.53;1.85;;;1.80;99.90;;;;;;4953101;28;20404;-86
2024/01/18 09:08:36;;;;;;;7.15;1.90;;;1.80;99.90;;;;;;4951952;28;20108;-86
2024/01/18 09:11:02;;;;;;;6.45;2.10;;;0.50;99.90;;;;;;4985151;28;20054;-86
2024/01/18 09:13:29;;;;;;;5.93;1.90;;;-0.10;99.90;;;;;;4968949;28;20567;-86
2024/01/18 09:15:55;;;;;;;6.50;1.80;;;0.00;99.90;;;;;;4953137;28;20286;-86
2024/01/18 09:18:21;;;;;;;6.65;2.17;;;0.40;99.90;;;;;;4951220;28;20053;-87
2024/01/18 09:20:46;;;;;;;5.88;2.03;;;2.00;99.90;;;;;;5001712;28;20073;-86
2024/01/18 09:23:12;;;;;;;6.72;2.00;;;2.00;99.90;;;;;;4956254;28;20097;-86
2024/01/18 09:25:41;;;;;;;6.32;1.70;;;0.60;99.90;;;;;;4972863;28;20046;-86
2024/01/18 09:28:07;;;;;;;7.00;1.90;;;0.20;99.90;;;;;;4972071;28;20119;-86
2024/01/18 09:30:34;;;;;;;6.38;2.00;;;0.40;99.90;;;;;;4956309;28;20047;-86
2024/01/18 09:33:01;;;;;;;5.78;1.80;;;0.50;99.90;;;;;;4956285;28;20118;-86
2024/01/18 09:35:27;;;;;;;5.55;1.83;;;0.50;99.90;;;;;;4956001;28;20035;-87
2024/01/18 09:37:53;;;;;;;4.97;1.90;;;0.10;99.90;;;;;;4955753;28;20030;-87
2024/01/18 09:40:19;;;;;;;6.78;2.00;;;1.60;99.90;;;;;;4972278;28;20542;-86
2024/01/18 09:42:46;;;;;;;7.68;2.15;;;0.90;99.90;;;;;;4971813;28;20043;-87
2024/01/18 09:45:14;;;;;;;4.05;1.73;;;1.20;99.90;;;;;;4956965;28;20035;-86
2024/01/18 09:47:44;;;;;;;5.25;1.90;;;2.20;99.90;;;;;;4971485;28;20038;-86
2024/01/18 09:50:10;;;;;;;6.40;2.08;;;1.20;99.90;;;;;;4955983;28;20511;-86
2024/01/18 09:52:36;;;;;;;5.63;2.05;;;1.80;99.90;;;;;;4972646;28;20046;-86
2024/01/18 09:55:04;;;;;;;6.93;2.10;;;1.40;99.90;;;;;;4931012;29;20043;-86
2024/01/18 09:57:32;;;;;;;5.18;1.85;;;1.40;99.90;;;;;;4951655;28;20520;-86
2024/01/18 10:00:01;;;;;;;5.75;2.00;;;1.40;99.90;;;;;;4955753;28;20042;-87
2024/01/18 10:02:27;;;;;;;7.20;2.00;;;1.60;99.90;;;;;;4972292;28;20035;-86
2024/01/18 10:05:00;;;;;;;4.68;1.77;;;1.80;99.90;;;;;;4956177;28;20044;-86
2024/01/18 10:07:29;;;;;;;6.32;1.95;;;2.20;99.90;;;;;;4954184;28;20518;-86
2024/01/18 10:09:55;;;;;;;5.05;1.70;;;2.50;99.90;;;;;;4956495;28;20460;-86
2024/01/18 10:12:21;;;;;;;4.97;1.58;;;2.60;99.90;;;;;;4955037;28;20253;-86
2024/01/18 10:14:47;;;;;;;3.45;1.55;;;2.50;99.90;;;;;;4955542;28;20069;-87
2024/01/18 10:17:21;;;;;;;3.40;1.50;;;2.40;99.90;;;;;;4938856;28;20500;-87
2024/01/18 10:19:56;;;;;;;3.70;1.30;;;2.10;99.90;;;;;;4968715;28;20050;-86
2024/01/18 10:22:22;;;;;;;2.17;1.20;;;1.80;99.90;;;;;;5004171;28;20130;-86
2024/01/18 10:24:49;;;;;;;1.98;1.35;;;1.70;99.90;;;;;;4971088;28;20054;-86
2024/01/18 10:27:18;;;;;;;2.72;1.50;;;1.40;99.90;;;;;;4970013;28;20043;-86
2024/01/18 10:29:44;;;;;;;2.78;1.50;;;2.60;99.90;;;;;;4954753;28;20058;-86
2024/01/18 10:32:10;;;;;;;3.58;1.45;;;1.40;99.90;;;;;;4955219;28;20039;-86
2024/01/18 10:34:36;;;;;;;2.85;1.30;;;1.30;99.90;;;;;;4987511;28;20090;-86
2024/01/18 10:37:04;;;;;;;2.35;1.30;;;1.30;99.90;;;;;;4954403;28;20042;-86
2024/01/18 10:39:40;;;;;;;2.30;1.30;;;2.80;99.90;;;;;;4971576;28;20039;-86
2024/01/18 10:42:10;;;;;;;4.05;1.52;;;1.30;99.90;;;;;;4955225;28;20497;-86
2024/01/18 10:44:45;;;;;;;1.95;1.30;;;1.40;99.90;;;;;;4971539;28;20042;-86
2024/01/18 10:47:12;;;;;;;4.07;1.77;;;1.40;99.90;;;;;;4953409;28;20039;-86
2024/01/18 10:49:40;;;;;;;4.90;1.70;;;1.50;99.90;;;;;;4938197;28;20046;-86
2024/01/18 10:52:09;;;;;;;3.25;1.50;;;1.60;99.90;;;;;;4971340;28;20042;-87
2024/01/18 10:54:35;;;;;;;3.88;1.48;;;1.80;99.90;;;;;;4971153;28;20047;-86
2024/01/18 10:57:01;;;;;;;2.75;1.40;;;2.00;99.90;;;;;;4970747;28;20046;-87
2024/01/18 10:59:30;;;;;;;2.60;1.48;;;1.70;99.90;;;;;;4968088;28;20038;-86
2024/01/18 11:02:00;;;;;;;3.45;1.50;;;1.80;99.90;;;;;;5009564;28;20050;-87
2024/01/18 11:04:27;;;;;;;3.20;1.50;;;1.90;99.90;;;;;;4970961;28;20496;-87
2024/01/18 11:06:57;;;;;;;4.93;1.70;;;3.70;99.90;;;;;;4954312;28;20105;-87
2024/01/18 11:09:29;;;;;;;3.70;1.50;;;3.20;99.90;;;;;;5001723;28;20500;-87
2024/01/18 11:11:56;;;;;;;2.45;1.50;;;3.60;99.90;;;;;;5002362;28;20046;-86
2024/01/18 11:14:22;;;;;;;3.35;1.38;;;2.50;99.90;;;;;;4954934;28;20038;-86
2024/01/18 11:16:49;;;;;;;2.35;1.30;;;;;;;;;;4954835;28;20400;-86
2024/01/18 11:19:41;;;;;;;1.40;1.30;;;2.50;99.90;;;;;;4953212;28;20293;-86
2024/01/18 11:22:21;;;;;;;2.20;1.40;;;2.30;99.90;;;;;;4985420;28;20504;-86
2024/01/18 11:24:47;;;;;;;1.58;1.27;;;2.30;99.90;;;;;;4955745;28;20064;-86
2024/01/18 11:27:17;;;;;;;3.33;1.38;;;2.10;99.90;;;;;;4954291;28;20039;-86
2024/01/18 11:29:43;;;;;;;2.50;1.33;;;2.10;99.90;;;;;;4950406;28;20051;-86
2024/01/18 11:32:14;;;;;;;4.32;1.38;;;2.20;99.90;;;;;;4954788;28;20047;-86
2024/01/18 11:34:40;;;;;;;1.98;1.40;;;2.40;99.90;;;;;;4966073;28;20555;-86
2024/01/18 11:37:12;;;;;;;3.83;1.50;;;3.10;99.90;;;;;;4953658;28;20041;-86
2024/01/18 11:39:47;;;;;;;2.97;1.38;;;3.70;99.90;;;;;;4969121;28;20047;-86
2024/01/18 11:42:27;;;;;;;1.80;1.40;;;2.50;99.90;;;;;;4953897;28;20041;-86
2024/01/18 11:45:14;;;;;;;3.88;1.50;;;2.60;99.90;;;;;;4997877;28;20047;-86
2024/01/18 11:47:39;;;;;;;2.85;1.50;;;2.60;99.90;;;;;;4970269;28;20581;-86
2024/01/18 11:50:11;;;;;;;5.20;1.48;;;2.60;99.90;;;;;;4968736;28;20146;-85
2024/01/18 11:52:42;;;;;;;4.57;1.40;;;2.60;99.90;;;;;;4937517;28;20042;-86
2024/01/18 11:55:11;;;;;;;3.80;1.50;;;3.70;99.90;;;;;;4969328;28;20042;-86
2024/01/18 11:57:37;;;;;;;4.65;2.33;;;2.70;99.90;;;;;;4962532;28;20181;-86
2024/01/18 12:00:04;;;;;;;8.10;1.75;;;2.80;99.90;;;;;;4969143;28;20405;-86
2024/01/18 12:02:30;;;;;;;3.65;1.40;;;2.70;99.90;;;;;;4953842;28;20154;-85
2024/01/18 12:04:56;;;;;;;3.53;1.42;;;2.80;99.90;;;;;;4953606;28;20472;-85
2024/01/18 12:07:24;;;;;;;3.55;1.40;;;2.70;99.90;;;;;;4953163;28;20085;-85
2024/01/18 12:09:50;;;;;;;2.13;1.30;;;2.80;99.90;;;;;;4951121;28;20496;-85
2024/01/18 12:12:17;;;;;;;3.22;1.33;;;2.80;99.90;;;;;;4953073;28;20077;-86
2024/01/18 12:14:44;;;;;;;1.83;1.30;;;3.90;99.90;;;;;;4985957;28;20038;-85
2024/01/18 12:17:12;;;;;;;5.30;1.40;;;2.30;99.90;;;;;;4953366;28;20035;-85
2024/01/18 12:19:40;;;;;;;3.60;1.30;;;4.50;99.90;;;;;;4953215;28;20578;-85
2024/01/18 12:22:11;;;;;;;4.85;1.40;;;3.00;99.90;;;;;;4953612;28;20082;-85
2024/01/18 12:24:39;;;;;;;1.77;1.30;;;3.10;99.90;;;;;;4969496;28;20035;-85
2024/01/18 12:27:05;;;;;;;3.83;1.42;;;2.90;99.90;;;;;;4953620;28;20121;-85
2024/01/18 12:29:36;;;;;;;6.10;1.55;;;3.00;99.90;;;;;;4967253;28;20074;-85
2024/01/18 12:32:02;;;;;;;3.70;1.48;;;3.00;99.90;;;;;;4953911;28;20520;-85
2024/01/18 12:34:29;;;;;;;3.40;1.45;;;3.00;99.90;;;;;;4969414;28;20125;-85
2024/01/18 12:36:56;;;;;;;6.10;1.63;;;3.10;99.90;;;;;;4953640;28;20050;-85
2024/01/18 12:39:22;;;;;;;6.75;1.70;;;3.10;99.90;;;;;;4951524;28;20154;-85
2024/01/18 12:41:54;;;;;;;3.70;1.70;;;3.80;99.90;;;;;;4951142;28;20121;-85
2024/01/18 12:44:21;;;;;;;7.97;1.70;;;3.20;99.90;;;;;;5002066;28;20089;-85
2024/01/18 12:46:49;;;;;;;5.40;1.60;;;3.80;99.90;;;;;;4969278;28;20129;-85
2024/01/18 12:49:15;;;;;;;7.15;1.70;;;3.40;99.90;;;;;;4950993;28;20049;-85
2024/01/18 12:51:50;;;;;;;5.13;1.92;;;3.40;99.90;;;;;;4951671;28;20141;-86